»·PEaware :: N1718G 8W5-KYKM

N1718G :: 8W5-KYKM

FLIGHT INFORMATION

Flight Status: Arrived
Operator: Privately registered:
United States
More flights under this callsign
Pilot: Spencer M. (27733)
Aircraft: CESSNA 206 STATIONAIR
(C206)
More flights by this aircraft type
Origin: 8W5 Apex Airpark
United States
Destination: KYKM Yakima Air Term/Mcallister
United States
More flights between these airports :: More routes between these airports
Route: +WUMOX SEA V4 YKM
File this flight plan on PilotEdge
Remarks:
Altitude:
(Current/Filed)
10,000ft
Speed:
(Current/Filed)
165kts
Departed: 03-May-20 08:50 PM
Arrived: 03-May-20 09:37 PM
Distance/Time
Traveled:
111nm/0:47
Distance/Time
To Go:
Arrived

Flight Plot

Page will automatically refresh every two minutes.


Map Options




Map Legend


Flown Route
Filed Route
Departure Airport
Arrival Airport
Navaid (VOR, NDB)
Fix

Horizontal Profiles

Position Reports

Time Latitude Longitude Heading Altitude Ground
Speed
03-May-20 20:40 47.660002 -122.733700 30 506ft 0kts
03-May-20 20:41 47.660002 -122.733700 30 506ft 0kts
03-May-20 20:42 47.660002 -122.733700 30 506ft 0kts
03-May-20 20:43 47.660002 -122.733700 30 506ft 0kts
03-May-20 20:44 47.660002 -122.733700 30 506ft 0kts
03-May-20 20:45 47.660002 -122.733700 30 506ft 0kts
03-May-20 20:46 47.660042 -122.732710 93 519ft 11kts
03-May-20 20:47 47.660030 -122.732567 98 521ft 0kts
03-May-20 20:48 47.659787 -122.732289 180 518ft 0kts
03-May-20 20:49 47.645998 -122.735023 182 800ft 113kts
03-May-20 20:50 47.615470 -122.718718 148 1843ft 128kts
03-May-20 20:51 47.586531 -122.682410 117 2566ft 143kts
03-May-20 20:52 47.567453 -122.631268 116 3395ft 138kts
03-May-20 20:53 47.548002 -122.582691 117 4290ft 137kts
03-May-20 20:54 47.528062 -122.534085 118 5192ft 139kts
03-May-20 20:55 47.507805 -122.484692 119 6095ft 141kts
03-May-20 20:56 47.487313 -122.434923 120 6996ft 143kts
03-May-20 20:57 47.466531 -122.384622 121 7901ft 144kts
03-May-20 20:58 47.445497 -122.333795 123 8808ft 145kts
03-May-20 20:59 47.423773 -122.283627 125 9704ft 145kts
03-May-20 21:00 47.399660 -122.229996 125 9992ft 170kts
03-May-20 21:01 47.372685 -122.170145 125 9990ft 177kts
03-May-20 21:02 47.345377 -122.109634 125 9991ft 177kts
03-May-20 21:03 47.317906 -122.048884 125 9992ft 178kts
03-May-20 21:04 47.290416 -121.988223 124 9994ft 178kts
03-May-20 21:05 47.262926 -121.927692 124 9996ft 178kts
03-May-20 21:06 47.235314 -121.867018 124 9996ft 178kts
03-May-20 21:07 47.207646 -121.806359 124 9996ft 178kts
03-May-20 21:08 47.180003 -121.745891 124 9994ft 178kts
03-May-20 21:09 47.152326 -121.685485 125 9994ft 178kts
03-May-20 21:10 47.124609 -121.625133 124 9995ft 178kts
03-May-20 21:11 47.096840 -121.564790 124 9997ft 178kts
03-May-20 21:12 47.068995 -121.504413 124 9999ft 178kts
03-May-20 21:13 47.041146 -121.444159 124 10000ft 178kts
03-May-20 21:14 47.013253 -121.383913 124 9985ft 179kts
03-May-20 21:15 46.985028 -121.323104 125 9962ft 181kts
03-May-20 21:17 46.956660 -121.262127 126 9941ft 181kts
03-May-20 21:18 46.928127 -121.200930 127 9920ft 182kts
03-May-20 21:19 46.899617 -121.139942 127 9916ft 181kts
03-May-20 21:20 46.871064 -121.078987 127 9917ft 180kts
03-May-20 21:21 46.842734 -121.018622 127 9915ft 180kts
03-May-20 21:22 46.814405 -120.958400 127 9914ft 180kts
03-May-20 21:23 46.786027 -120.898189 127 9912ft 179kts
03-May-20 21:24 46.757705 -120.838239 127 9911ft 179kts
03-May-20 21:25 46.729514 -120.778726 127 9254ft 175kts
03-May-20 21:26 46.704899 -120.726838 127 8554ft 165kts
03-May-20 21:27 46.680525 -120.677057 131 7603ft 147kts
03-May-20 21:28 46.655612 -120.632010 130 6154ft 141kts
03-May-20 21:29 46.629175 -120.593226 142 4808ft 133kts
03-May-20 21:30 46.608052 -120.550850 96 3435ft 136kts
03-May-20 21:31 46.599377 -120.500382 107 2480ft 125kts
03-May-20 21:32 46.582667 -120.472641 173 1893ft 77kts
03-May-20 21:33 46.564064 -120.477132 224 1597ft 64kts
03-May-20 21:34 46.556514 -120.497174 285 1452ft 54kts
03-May-20 21:35 46.561932 -120.517670 292 1242ft 54kts
03-May-20 21:35 46.566388 -120.535022 296 1053ft 44kts
03-May-20 21:37 46.568364 -120.539527 38 1063ft 0kts
03-May-20 21:37 46.568374 -120.539516 39 1063ft 0kts
03-May-20 21:38 46.569639 -120.541626 306 1066ft 4kts

Navigation Log

Ident Type
Flight plan parsing failed, navigation log unavailable